createdAt,value
2019-06-07T00:02:18.777Z,15.30
2019-06-07T00:04:48.501Z,15.30
2019-06-07T00:07:21.869Z,15.30
2019-06-07T00:09:49.523Z,15.40
2019-06-07T00:12:21.448Z,15.40
2019-06-07T00:14:50.138Z,15.40
2019-06-07T00:17:20.224Z,15.30
2019-06-07T00:19:50.186Z,15.30
2019-06-07T00:22:32.263Z,15.30
2019-06-07T00:24:51.179Z,15.30
2019-06-07T00:27:22.551Z,15.30
2019-06-07T00:29:52.052Z,15.30
2019-06-07T00:32:22.270Z,15.30
2019-06-07T00:34:51.507Z,15.20
2019-06-07T00:37:23.409Z,15.20
2019-06-07T00:40:12.765Z,15.20
2019-06-07T00:42:24.253Z,15.20
2019-06-07T00:44:53.462Z,15.30
2019-06-07T00:47:25.389Z,15.20
2019-06-07T00:49:53.968Z,15.30
2019-06-07T00:53:11.525Z,15.30
2019-06-07T00:54:55.133Z,15.30
2019-06-07T00:57:24.729Z,15.30
2019-06-07T00:59:54.372Z,15.30
2019-06-07T01:02:28.804Z,15.20
2019-06-07T01:04:55.207Z,15.20
2019-06-07T01:07:24.630Z,15.20
2019-06-07T01:09:54.145Z,15.10
2019-06-07T01:12:24.598Z,15.10
2019-06-07T01:14:54.148Z,15.10
2019-06-07T01:17:41.461Z,15.10
2019-06-07T01:19:59.214Z,15.10
2019-06-07T01:22:29.348Z,15.00
2019-06-07T01:25:01.850Z,15.00
2019-06-07T01:27:31.292Z,15.00
2019-06-07T01:30:00.848Z,15.00
2019-06-07T01:32:31.836Z,15.00
2019-06-07T01:35:01.688Z,15.00
2019-06-07T01:37:31.126Z,15.00
2019-06-07T01:40:01.876Z,15.10
2019-06-07T01:42:31.304Z,15.10
2019-06-07T01:45:04.566Z,15.00
2019-06-07T01:47:33.812Z,15.00
2019-06-07T01:50:03.017Z,14.90
2019-06-07T01:52:32.615Z,15.00
2019-06-07T01:55:02.101Z,14.90
2019-06-07T01:57:45.741Z,15.10
2019-06-07T02:00:05.251Z,15.00
2019-06-07T02:02:34.972Z,15.00
2019-06-07T02:05:05.448Z,15.00
2019-06-07T02:07:34.813Z,14.90
2019-06-07T02:10:05.791Z,15.00
2019-06-07T02:12:43.213Z,15.00
2019-06-07T02:15:08.559Z,15.00
2019-06-07T02:17:38.338Z,15.00
2019-06-07T02:20:08.511Z,14.90
2019-06-07T02:22:38.253Z,15.00
2019-06-07T02:27:40.009Z,15.00
2019-06-07T02:30:36.917Z,14.90
2019-06-07T02:32:43.308Z,14.90
2019-06-07T02:35:12.722Z,14.90
2019-06-07T02:37:42.208Z,14.90
2019-06-07T02:40:11.973Z,14.90
2019-06-07T02:42:42.614Z,14.90
2019-06-07T02:45:12.859Z,14.90
2019-06-07T02:47:45.250Z,14.90
2019-06-07T02:50:15.735Z,14.90
2019-06-07T02:52:45.377Z,14.90
2019-06-07T02:55:15.052Z,14.90
2019-06-07T02:57:47.574Z,14.90
2019-06-07T03:00:58.611Z,15.00
2019-06-07T03:03:08.673Z,15.00
2019-06-07T03:05:41.182Z,15.10
2019-06-07T03:08:13.137Z,15.20
2019-06-07T03:10:44.968Z,15.20
2019-06-07T03:13:19.131Z,15.10
2019-06-07T03:15:52.892Z,15.10
2019-06-07T03:18:41.225Z,15.00
2019-06-07T03:21:10.575Z,15.10
2019-06-07T03:23:41.302Z,15.10
2019-06-07T03:26:10.598Z,15.30
2019-06-07T03:28:40.057Z,15.30
2019-06-07T03:31:10.583Z,15.30
2019-06-07T03:33:42.856Z,15.40
2019-06-07T03:36:23.501Z,15.40
2019-06-07T03:38:44.814Z,15.30
2019-06-07T03:41:17.490Z,15.30
2019-06-07T03:43:47.006Z,15.40
2019-06-07T03:46:16.260Z,15.40
2019-06-07T03:48:45.898Z,15.40
2019-06-07T03:51:24.853Z,15.40
2019-06-07T03:53:46.331Z,15.40
2019-06-07T03:56:16.051Z,15.40
2019-06-07T03:58:49.749Z,15.50
2019-06-07T04:01:16.068Z,15.40
2019-06-07T04:03:51.410Z,15.50
2019-06-07T04:06:16.570Z,15.60
2019-06-07T04:08:45.749Z,15.50
2019-06-07T04:11:15.173Z,15.50
2019-06-07T04:13:44.425Z,15.50
2019-06-07T04:16:14.338Z,15.50
2019-06-07T04:18:43.622Z,15.50
2019-06-07T04:21:13.047Z,15.50
2019-06-07T04:23:45.645Z,15.50
2019-06-07T04:26:13.897Z,15.50
2019-06-07T04:29:31.120Z,15.50
2019-06-07T04:31:13.919Z,15.50
2019-06-07T04:33:47.729Z,15.60
2019-06-07T04:36:17.300Z,15.50
2019-06-07T04:38:47.495Z,15.50
2019-06-07T04:41:18.621Z,15.50
2019-06-07T04:43:48.863Z,15.60
2019-06-07T04:46:20.251Z,15.70
2019-06-07T04:48:51.338Z,15.60
2019-06-07T04:51:24.106Z,15.60
2019-06-07T04:53:53.775Z,15.60
2019-06-07T04:56:23.298Z,15.60
2019-06-07T04:58:53.066Z,15.60
2019-06-07T05:01:27.644Z,15.70
2019-06-07T05:03:53.348Z,15.70
2019-06-07T05:06:22.551Z,15.70
2019-06-07T05:08:52.090Z,15.70
2019-06-07T05:11:21.659Z,15.80
2019-06-07T05:13:51.094Z,15.80
2019-06-07T05:16:20.453Z,15.80
2019-06-07T05:18:51.199Z,15.90
2019-06-07T05:21:20.599Z,15.90
2019-06-07T05:24:06.463Z,16.00
2019-06-07T05:26:21.353Z,16.10
2019-06-07T05:28:50.647Z,16.00
2019-06-07T05:31:20.142Z,16.10
2019-06-07T05:33:49.493Z,16.10
2019-06-07T05:36:18.750Z,16.20
2019-06-07T05:38:48.103Z,16.20
2019-06-07T05:41:17.250Z,16.30
2019-06-07T05:44:00.252Z,16.30
2019-06-07T05:46:17.133Z,16.30
2019-06-07T05:48:46.668Z,16.40
2019-06-07T05:51:16.066Z,16.50
2019-06-07T05:53:46.207Z,16.60
2019-06-07T05:56:15.639Z,16.70
2019-06-07T05:58:45.244Z,16.70
2019-06-07T06:01:42.214Z,16.80
2019-06-07T06:03:48.038Z,16.80
2019-06-07T06:06:16.944Z,16.80
2019-06-07T06:08:47.774Z,16.80
2019-06-07T06:11:18.472Z,16.70
2019-06-07T06:14:06.045Z,16.80
2019-06-07T06:16:20.095Z,16.80
2019-06-07T06:18:49.665Z,16.70
2019-06-07T06:21:20.401Z,16.70
2019-06-07T06:23:51.890Z,16.70
2019-06-07T06:26:20.640Z,16.70
2019-06-07T06:28:49.932Z,16.70
2019-06-07T06:31:19.238Z,16.70
2019-06-07T06:33:49.949Z,16.70
2019-06-07T06:36:19.832Z,16.70
2019-06-07T06:38:51.319Z,16.80
2019-06-07T06:41:21.082Z,17.00
2019-06-07T06:43:52.576Z,17.10
2019-06-07T06:46:38.026Z,17.20
2019-06-07T06:48:55.375Z,17.20
2019-06-07T06:51:23.155Z,17.30
2019-06-07T06:53:52.711Z,17.30
2019-06-07T06:56:21.912Z,17.40
2019-06-07T06:59:27.317Z,17.40
2019-06-07T07:01:22.500Z,17.40
2019-06-07T07:04:11.073Z,17.40
2019-06-07T07:06:26.281Z,17.40
2019-06-07T07:08:55.253Z,17.30
2019-06-07T07:11:26.064Z,17.20
2019-06-07T07:13:56.864Z,17.20
2019-06-07T07:16:26.020Z,17.10
2019-06-07T07:18:54.992Z,17.10
2019-06-07T07:21:23.786Z,17.20
2019-06-07T07:24:19.667Z,17.10
2019-06-07T07:26:22.541Z,17.10
2019-06-07T07:28:54.594Z,17.10
2019-06-07T07:31:21.289Z,17.10
2019-06-07T07:36:38.005Z,17.10
2019-06-07T07:39:00.531Z,17.20
2019-06-07T07:41:21.369Z,17.20
2019-06-07T07:43:59.912Z,17.20
2019-06-07T07:46:29.298Z,17.20
2019-06-07T07:48:53.020Z,17.20
2019-06-07T07:51:20.487Z,17.20
2019-06-07T07:53:58.980Z,17.20
2019-06-07T07:56:19.847Z,17.20
2019-06-07T07:58:53.691Z,17.30
2019-06-07T08:01:18.583Z,17.30
2019-06-07T08:03:48.153Z,17.20
2019-06-07T08:06:17.122Z,17.20
2019-06-07T08:08:46.359Z,17.20
2019-06-07T08:11:15.197Z,17.20
2019-06-07T08:13:43.751Z,17.30
2019-06-07T08:16:16.470Z,17.30
2019-06-07T08:18:42.486Z,17.30
2019-06-07T08:21:24.735Z,17.40
2019-06-07T08:23:41.587Z,17.40
2019-06-07T08:26:10.397Z,17.40
2019-06-07T08:28:38.888Z,17.30
2019-06-07T08:31:08.135Z,17.30
2019-06-07T08:33:36.973Z,17.40
2019-06-07T08:36:19.217Z,17.40
2019-06-07T08:38:47.553Z,17.50
2019-06-07T08:41:12.106Z,17.50
2019-06-07T08:43:36.627Z,17.60
2019-06-07T08:46:07.620Z,17.70
2019-06-07T08:48:35.740Z,17.70
2019-06-07T08:51:08.271Z,17.80
2019-06-07T08:53:34.755Z,17.80
2019-06-07T08:56:09.016Z,17.90
2019-06-07T08:58:33.525Z,18.00
2019-06-07T09:01:06.377Z,18.20
2019-06-07T09:03:32.311Z,18.20
2019-06-07T09:06:16.387Z,18.30
2019-06-07T09:08:31.199Z,18.40
2019-06-07T09:11:05.398Z,18.40
2019-06-07T09:13:29.937Z,18.60
2019-06-07T09:16:04.975Z,18.70
2019-06-07T09:18:41.998Z,18.80
2019-06-07T09:21:01.136Z,18.70
2019-06-07T09:23:29.099Z,18.60
2019-06-07T09:26:09.809Z,18.60
2019-06-07T09:28:28.258Z,18.50
2019-06-07T09:30:57.868Z,18.40
2019-06-07T09:33:26.909Z,18.30
2019-06-07T09:35:56.241Z,18.40
2019-06-07T09:38:26.862Z,18.30
2019-06-07T09:40:57.433Z,18.20
2019-06-07T09:45:56.655Z,18.10
2019-06-07T09:49:09.266Z,18.20
2019-06-07T09:51:02.122Z,18.40
2019-06-07T09:53:26.715Z,18.40
2019-06-07T09:55:56.749Z,18.50
2019-06-07T10:00:59.168Z,18.50
2019-06-07T10:03:26.274Z,18.40
2019-06-07T10:05:54.733Z,18.30
2019-06-07T10:09:42.281Z,18.40
2019-06-07T10:10:53.455Z,18.40
2019-06-07T10:13:22.059Z,18.40
2019-06-07T10:15:53.632Z,18.40
2019-06-07T10:18:21.253Z,18.60
2019-06-07T10:20:49.729Z,18.80
2019-06-07T10:23:37.825Z,18.90
2019-06-07T10:26:06.412Z,19.10
2019-06-07T10:28:35.295Z,19.30
2019-06-07T10:31:04.508Z,19.50
2019-06-07T10:33:33.091Z,19.50
2019-06-07T10:36:02.471Z,19.50
2019-06-07T10:38:31.094Z,19.60
2019-06-07T10:41:00.784Z,19.60
2019-06-07T10:43:29.672Z,19.80
2019-06-07T10:45:58.145Z,19.90
2019-06-07T10:48:26.598Z,19.90
2019-06-07T10:50:55.090Z,20.10
2019-06-07T10:53:23.537Z,20.20
2019-06-07T10:55:52.019Z,20.20
2019-06-07T10:58:20.970Z,20.20
2019-06-07T11:00:49.856Z,19.90
2019-06-07T11:03:18.346Z,19.90
2019-06-07T11:05:47.682Z,19.80
2019-06-07T11:08:16.222Z,19.70
2019-06-07T11:10:44.669Z,19.60
2019-06-07T11:13:14.379Z,19.60
2019-06-07T11:15:43.133Z,19.60
2019-06-07T11:18:12.549Z,19.60
2019-06-07T11:20:41.251Z,19.60
2019-06-07T11:23:10.092Z,19.60
2019-06-07T11:25:39.079Z,19.60
2019-06-07T11:28:08.393Z,19.50
2019-06-07T11:30:36.999Z,19.40
2019-06-07T11:33:06.427Z,19.30
2019-06-07T11:35:35.565Z,19.20
2019-06-07T11:38:04.748Z,19.00
2019-06-07T11:40:35.969Z,19.00
2019-06-07T11:43:03.942Z,19.00
2019-06-07T11:45:32.453Z,19.00
2019-06-07T11:48:01.231Z,19.10
2019-06-07T11:50:29.706Z,19.20
2019-06-07T11:52:58.517Z,19.20
2019-06-07T11:55:27.214Z,19.30
2019-06-07T11:57:55.709Z,19.40
2019-06-07T12:00:24.383Z,19.60
2019-06-07T12:02:52.995Z,19.80
2019-06-07T12:05:21.579Z,20.00
2019-06-07T12:07:50.422Z,19.90
2019-06-07T12:10:22.855Z,19.90
2019-06-07T12:12:50.354Z,20.00
2019-06-07T12:15:19.398Z,19.90
2019-06-07T12:17:48.605Z,19.90
2019-06-07T12:20:19.503Z,20.10
2019-06-07T12:22:47.979Z,20.60
2019-06-07T12:25:21.547Z,21.00
2019-06-07T12:27:47.514Z,21.30
2019-06-07T12:30:22.523Z,21.60
2019-06-07T12:32:46.500Z,21.60
2019-06-07T12:35:15.709Z,21.60
2019-06-07T12:37:45.095Z,21.50
2019-06-07T12:40:22.399Z,21.10
2019-06-07T12:42:44.419Z,20.70
2019-06-07T12:45:30.740Z,20.80
2019-06-07T12:47:43.383Z,21.40
2019-06-07T12:50:13.496Z,22.20
2019-06-07T12:52:42.535Z,22.80
2019-06-07T12:55:11.352Z,23.10
2019-06-07T12:57:39.840Z,23.20
2019-06-07T13:00:14.115Z,23.30
2019-06-07T13:02:43.211Z,23.60
2019-06-07T13:05:12.247Z,23.60
2019-06-07T13:07:40.841Z,22.80
2019-06-07T13:10:10.000Z,22.20
2019-06-07T13:12:38.802Z,22.30
2019-06-07T13:15:08.091Z,22.50
2019-06-07T13:17:37.866Z,22.40
2019-06-07T13:20:08.515Z,22.30
2019-06-07T13:22:37.518Z,22.20
2019-06-07T13:25:07.773Z,22.20
2019-06-07T13:27:36.392Z,22.10
2019-06-07T13:30:10.177Z,22.00
2019-06-07T13:32:37.691Z,22.30
2019-06-07T13:35:08.438Z,22.60
2019-06-07T13:37:36.926Z,22.80
2019-06-07T13:40:06.696Z,22.80
2019-06-07T13:42:35.606Z,22.60
2019-06-07T13:45:08.066Z,22.70
2019-06-07T13:47:36.594Z,23.00
2019-06-07T13:50:08.870Z,23.10
2019-06-07T13:52:37.709Z,23.30
2019-06-07T13:55:07.057Z,23.40
2019-06-07T13:57:36.125Z,23.70
2019-06-07T14:00:11.973Z,24.10
2019-06-07T14:02:40.586Z,24.50
2019-06-07T14:05:09.873Z,24.70
2019-06-07T14:07:38.758Z,24.90
2019-06-07T14:10:11.412Z,24.90
2019-06-07T14:12:38.983Z,24.50
2019-06-07T14:15:08.480Z,24.30
2019-06-07T14:17:37.123Z,24.20
2019-06-07T14:20:07.048Z,24.40
2019-06-07T14:22:35.883Z,24.00
2019-06-07T14:25:07.175Z,23.80
2019-06-07T14:27:35.636Z,23.90
2019-06-07T14:30:07.315Z,24.10
2019-06-07T14:32:35.867Z,23.30
2019-06-07T14:35:07.266Z,22.50
2019-06-07T14:37:35.777Z,22.50
2019-06-07T14:40:06.861Z,22.80
2019-06-07T14:42:35.382Z,21.80
2019-06-07T14:45:06.343Z,21.30
2019-06-07T14:47:35.441Z,21.60
2019-06-07T14:50:05.731Z,21.50
2019-06-07T14:52:35.128Z,21.90
2019-06-07T14:55:07.934Z,22.10
2019-06-07T14:57:37.622Z,21.90
2019-06-07T15:00:14.031Z,21.90
2019-06-07T15:02:42.639Z,22.00
2019-06-07T15:05:11.872Z,21.80
2019-06-07T15:07:40.802Z,21.30
2019-06-07T15:10:09.760Z,21.10
2019-06-07T15:12:40.012Z,21.00
2019-06-07T15:15:09.409Z,20.60
2019-06-07T15:17:39.212Z,20.10
2019-06-07T15:20:09.552Z,19.90
2019-06-07T15:22:38.734Z,19.70
2019-06-07T15:25:08.707Z,19.70
2019-06-07T15:27:37.864Z,19.70
2019-06-07T15:30:10.546Z,19.80
2019-06-07T15:36:11.328Z,19.90
2019-06-07T15:38:39.855Z,19.90
2019-06-07T15:41:08.402Z,19.90
2019-06-07T15:43:37.405Z,19.80
2019-06-07T15:46:06.563Z,19.50
2019-06-07T15:48:36.098Z,19.20
2019-06-07T15:51:05.256Z,19.10
2019-06-07T15:53:39.093Z,19.20
2019-06-07T15:56:03.986Z,19.40
2019-06-07T15:58:33.040Z,19.50
2019-06-07T16:01:02.052Z,19.60
2019-06-07T16:03:31.472Z,19.60
2019-06-07T16:06:00.022Z,19.50
2019-06-07T16:08:29.039Z,19.50
2019-06-07T16:10:57.489Z,19.50
2019-06-07T16:13:25.941Z,19.50
2019-06-07T16:15:54.422Z,19.60
2019-06-07T16:18:23.099Z,19.60
2019-06-07T16:20:51.765Z,19.60
2019-06-07T16:23:20.250Z,19.60
2019-06-07T16:25:48.705Z,19.50
2019-06-07T16:28:17.159Z,19.50
2019-06-07T16:30:45.639Z,19.50
2019-06-07T16:33:14.463Z,19.50
2019-06-07T16:35:43.266Z,19.40
2019-06-07T16:38:11.867Z,19.40
2019-06-07T16:40:40.438Z,19.30
2019-06-07T16:43:18.216Z,19.30
2019-06-07T16:45:40.709Z,19.30
2019-06-07T16:48:09.459Z,19.30
2019-06-07T16:50:38.747Z,19.30
2019-06-07T16:53:07.405Z,19.20
2019-06-07T16:55:36.497Z,19.10
2019-06-07T16:58:05.243Z,19.10
2019-06-07T17:00:33.758Z,19.10
2019-06-07T17:03:02.206Z,19.00
2019-06-07T17:05:30.683Z,19.00
2019-06-07T17:07:59.461Z,19.10
2019-06-07T17:10:27.982Z,19.10
2019-06-07T17:12:56.540Z,19.10
2019-06-07T17:15:25.387Z,19.10
2019-06-07T17:17:54.099Z,19.10
2019-06-07T17:20:22.641Z,19.00
2019-06-07T17:22:51.096Z,18.90
2019-06-07T17:28:52.010Z,18.90
2019-06-07T17:31:20.719Z,18.80
2019-06-07T17:33:50.130Z,18.80
2019-06-07T17:36:18.819Z,18.90
2019-06-07T17:38:48.605Z,18.80
2019-06-07T17:41:17.338Z,18.90
2019-06-07T17:43:55.961Z,18.90
2019-06-07T17:46:16.480Z,18.90
2019-06-07T17:48:45.561Z,18.80
2019-06-07T17:51:14.302Z,18.80
2019-06-07T17:53:43.871Z,18.90
2019-06-07T17:56:12.478Z,18.90
2019-06-07T17:58:42.189Z,18.90
2019-06-07T18:01:10.917Z,18.80
2019-06-07T18:03:39.538Z,18.80
2019-06-07T18:06:08.647Z,18.70
2019-06-07T18:08:37.250Z,18.60
2019-06-07T18:11:06.014Z,18.60
2019-06-07T18:13:34.563Z,18.50
2019-06-07T18:16:03.148Z,18.60
2019-06-07T18:18:31.872Z,18.50
2019-06-07T18:21:00.756Z,18.50
2019-06-07T18:23:29.346Z,18.40
2019-06-07T18:25:58.859Z,18.40
2019-06-07T18:28:27.547Z,18.40
2019-06-07T18:30:56.066Z,18.40
2019-06-07T18:33:24.598Z,18.40
2019-06-07T18:35:53.499Z,18.40
2019-06-07T18:38:22.204Z,18.40
2019-06-07T18:40:51.263Z,18.40
2019-06-07T18:43:20.574Z,18.40
2019-06-07T18:45:49.321Z,18.40
2019-06-07T18:48:17.852Z,18.40
2019-06-07T18:50:46.602Z,18.50
2019-06-07T18:53:15.228Z,18.40
2019-06-07T18:55:43.826Z,18.40
2019-06-07T18:58:12.387Z,18.40
2019-06-07T19:00:41.192Z,18.50
2019-06-07T19:03:10.069Z,18.50
2019-06-07T19:05:38.960Z,18.50
2019-06-07T19:08:07.803Z,18.40
2019-06-07T19:10:36.412Z,18.30
2019-06-07T19:13:05.210Z,18.30
2019-06-07T19:15:33.719Z,18.30
2019-06-07T19:18:02.760Z,18.30
2019-06-07T19:20:31.574Z,18.20
2019-06-07T19:23:00.507Z,18.20
2019-06-07T19:25:29.239Z,18.10
2019-06-07T19:27:59.139Z,18.10
2019-06-07T19:30:28.468Z,18.10
2019-06-07T19:32:57.333Z,18.10
2019-06-07T19:35:25.991Z,18.00
2019-06-07T19:37:55.755Z,17.90
2019-06-07T19:40:24.538Z,17.90
2019-06-07T19:42:54.098Z,17.80
2019-06-07T19:45:31.457Z,17.80
2019-06-07T19:47:54.436Z,17.80
2019-06-07T19:50:23.076Z,17.80
2019-06-07T19:52:53.015Z,17.90
2019-06-07T19:55:22.192Z,17.90
2019-06-07T19:57:50.706Z,17.80
2019-06-07T20:00:19.394Z,17.70
2019-06-07T20:02:47.948Z,17.70
2019-06-07T20:05:18.073Z,17.70
2019-06-07T20:07:46.531Z,17.70
2019-06-07T20:10:15.910Z,17.70
2019-06-07T20:12:44.593Z,17.60
2019-06-07T20:15:27.797Z,17.60
2019-06-07T20:17:44.183Z,17.60
2019-06-07T20:20:13.097Z,17.50
2019-06-07T20:22:41.624Z,17.30
2019-06-07T20:25:11.624Z,17.30
2019-06-07T20:27:40.135Z,17.30
2019-06-07T20:30:10.216Z,17.40
2019-06-07T20:32:38.773Z,17.30
2019-06-07T20:35:08.241Z,17.30
2019-06-07T20:37:37.253Z,17.30
2019-06-07T20:40:22.722Z,17.30
2019-06-07T20:42:38.951Z,17.20
2019-06-07T20:45:08.548Z,17.30
2019-06-07T20:47:37.337Z,17.30
2019-06-07T20:50:08.669Z,17.30
2019-06-07T20:52:37.565Z,17.30
2019-06-07T20:55:09.476Z,17.30
2019-06-07T20:57:38.583Z,17.30
2019-06-07T21:00:14.634Z,17.30
2019-06-07T21:02:38.836Z,17.30
2019-06-07T21:05:07.735Z,17.40
2019-06-07T21:07:36.413Z,17.40
2019-06-07T21:10:09.020Z,17.40
2019-06-07T21:12:38.803Z,17.50
2019-06-07T21:15:11.834Z,17.50
2019-06-07T21:17:38.326Z,17.50
2019-06-07T21:20:11.931Z,17.50
2019-06-07T21:22:38.915Z,17.60
2019-06-07T21:25:09.211Z,17.60
2019-06-07T21:27:38.382Z,17.70
2019-06-07T21:30:09.578Z,17.70
2019-06-07T21:32:38.461Z,17.60
2019-06-07T21:35:08.055Z,17.60
2019-06-07T21:37:36.801Z,17.70
2019-06-07T21:40:06.346Z,17.60
2019-06-07T21:42:35.111Z,17.60
2019-06-07T21:45:07.304Z,17.60
2019-06-07T21:47:34.871Z,17.60
2019-06-07T21:50:04.969Z,17.70
2019-06-07T21:52:34.254Z,17.70
2019-06-07T21:55:02.927Z,17.70
2019-06-07T21:57:31.582Z,17.70
2019-06-07T22:00:00.092Z,17.70
2019-06-07T22:02:28.619Z,17.70
2019-06-07T22:04:57.159Z,17.80
2019-06-07T22:07:26.066Z,17.80
2019-06-07T22:09:54.598Z,17.60
2019-06-07T22:12:23.335Z,17.50
2019-06-07T22:14:51.810Z,17.40
2019-06-07T22:17:20.261Z,17.40
2019-06-07T22:19:48.714Z,17.30
2019-06-07T22:22:17.564Z,17.40
2019-06-07T22:24:46.006Z,17.40
2019-06-07T22:27:15.581Z,17.30
2019-06-07T22:29:44.321Z,17.40
2019-06-07T22:32:13.028Z,17.40
2019-06-07T22:34:41.662Z,17.50
2019-06-07T22:37:11.296Z,17.40
2019-06-07T22:39:40.116Z,17.40
2019-06-07T22:42:08.854Z,17.40
2019-06-07T22:44:40.055Z,17.30
2019-06-07T22:47:08.004Z,17.30
2019-06-07T22:49:36.749Z,17.30
2019-06-07T22:52:08.597Z,17.40
2019-06-07T22:54:35.399Z,17.40
2019-06-07T22:57:06.027Z,17.40
2019-06-07T22:59:34.839Z,16.80
2019-06-07T23:02:03.287Z,16.40
2019-06-07T23:04:31.766Z,16.10
2019-06-07T23:07:00.566Z,15.80
2019-06-07T23:09:29.360Z,15.60
2019-06-07T23:11:57.809Z,15.50
2019-06-07T23:14:44.650Z,15.40
2019-06-07T23:17:13.834Z,15.30
2019-06-07T23:19:42.858Z,15.10
2019-06-07T23:22:11.920Z,15.00
2019-06-07T23:24:40.449Z,15.00
2019-06-07T23:27:10.915Z,14.90
2019-06-07T23:29:39.732Z,14.80
2019-06-07T23:33:02.918Z,14.70
2019-06-07T23:35:31.393Z,14.80
2019-06-07T23:37:59.866Z,14.80
2019-06-07T23:40:28.749Z,14.80
2019-06-07T23:42:57.646Z,14.90
2019-06-07T23:45:26.165Z,15.10
2019-06-07T23:47:54.611Z,15.20
2019-06-07T23:50:23.089Z,15.20
2019-06-07T23:52:51.546Z,15.20
2019-06-07T23:55:20.155Z,15.10
2019-06-07T23:57:48.739Z,15.10
